sensor_id;sensor_type;location;lat;lon;timestamp;P1;durP1;ratioP1;P2;durP2;ratioP2
12880;SDS011;6508;53.786;9.996;2024-03-29T00:02:05;17.05;;;16.15;;
12880;SDS011;6508;53.786;9.996;2024-03-29T00:04:31;17.05;;;15.80;;
12880;SDS011;6508;53.786;9.996;2024-03-29T00:06:57;16.10;;;15.30;;
12880;SDS011;6508;53.786;9.996;2024-03-29T00:09:23;16.92;;;16.23;;
12880;SDS011;6508;53.786;9.996;2024-03-29T00:11:49;16.25;;;15.48;;
12880;SDS011;6508;53.786;9.996;2024-03-29T00:14:15;15.68;;;15.07;;
12880;SDS011;6508;53.786;9.996;2024-03-29T00:16:41;16.52;;;15.35;;
12880;SDS011;6508;53.786;9.996;2024-03-29T00:19:09;16.58;;;15.77;;
12880;SDS011;6508;53.786;9.996;2024-03-29T00:21:34;16.58;;;15.70;;
12880;SDS011;6508;53.786;9.996;2024-03-29T00:24:00;16.42;;;15.55;;
12880;SDS011;6508;53.786;9.996;2024-03-29T00:26:26;16.35;;;15.60;;
12880;SDS011;6508;53.786;9.996;2024-03-29T00:28:52;15.82;;;15.13;;
12880;SDS011;6508;53.786;9.996;2024-03-29T00:31:19;16.95;;;16.20;;
12880;SDS011;6508;53.786;9.996;2024-03-29T00:33:45;16.58;;;15.88;;
12880;SDS011;6508;53.786;9.996;2024-03-29T00:36:12;16.25;;;15.48;;
12880;SDS011;6508;53.786;9.996;2024-03-29T00:38:38;15.70;;;15.07;;
12880;SDS011;6508;53.786;9.996;2024-03-29T00:41:04;16.13;;;15.43;;
12880;SDS011;6508;53.786;9.996;2024-03-29T00:43:30;15.82;;;15.10;;
12880;SDS011;6508;53.786;9.996;2024-03-29T00:45:56;15.75;;;15.15;;
12880;SDS011;6508;53.786;9.996;2024-03-29T00:48:22;16.48;;;15.40;;
12880;SDS011;6508;53.786;9.996;2024-03-29T00:50:49;15.77;;;15.13;;
12880;SDS011;6508;53.786;9.996;2024-03-29T00:53:17;15.35;;;14.75;;
12880;SDS011;6508;53.786;9.996;2024-03-29T00:55:43;16.13;;;15.32;;
12880;SDS011;6508;53.786;9.996;2024-03-29T00:58:09;15.65;;;14.98;;
12880;SDS011;6508;53.786;9.996;2024-03-29T01:00:35;16.13;;;15.25;;
12880;SDS011;6508;53.786;9.996;2024-03-29T01:03:01;14.90;;;14.35;;
12880;SDS011;6508;53.786;9.996;2024-03-29T01:05:27;15.40;;;14.80;;
12880;SDS011;6508;53.786;9.996;2024-03-29T01:07:53;15.65;;;15.00;;
12880;SDS011;6508;53.786;9.996;2024-03-29T01:10:21;15.15;;;14.48;;
12880;SDS011;6508;53.786;9.996;2024-03-29T01:12:47;14.68;;;14.00;;
12880;SDS011;6508;53.786;9.996;2024-03-29T01:15:13;14.40;;;13.90;;
12880;SDS011;6508;53.786;9.996;2024-03-29T01:17:39;14.48;;;13.88;;
12880;SDS011;6508;53.786;9.996;2024-03-29T01:20:05;15.02;;;14.13;;
12880;SDS011;6508;53.786;9.996;2024-03-29T01:22:32;14.60;;;13.88;;
12880;SDS011;6508;53.786;9.996;2024-03-29T01:24:58;15.07;;;14.27;;
12880;SDS011;6508;53.786;9.996;2024-03-29T01:27:25;14.30;;;13.80;;
12880;SDS011;6508;53.786;9.996;2024-03-29T01:29:51;14.43;;;13.82;;
12880;SDS011;6508;53.786;9.996;2024-03-29T01:32:17;14.93;;;13.88;;
12880;SDS011;6508;53.786;9.996;2024-03-29T01:34:43;14.43;;;13.93;;
12880;SDS011;6508;53.786;9.996;2024-03-29T01:37:09;15.02;;;14.00;;
12880;SDS011;6508;53.786;9.996;2024-03-29T01:39:35;15.70;;;14.80;;
12880;SDS011;6508;53.786;9.996;2024-03-29T01:42:01;15.07;;;14.30;;
12880;SDS011;6508;53.786;9.996;2024-03-29T01:44:28;14.02;;;13.30;;
12880;SDS011;6508;53.786;9.996;2024-03-29T01:46:55;14.75;;;14.02;;
12880;SDS011;6508;53.786;9.996;2024-03-29T01:49:23;14.93;;;14.38;;
12880;SDS011;6508;53.786;9.996;2024-03-29T01:51:49;14.95;;;14.30;;
12880;SDS011;6508;53.786;9.996;2024-03-29T01:54:16;15.18;;;14.48;;
12880;SDS011;6508;53.786;9.996;2024-03-29T01:56:44;15.02;;;14.25;;
12880;SDS011;6508;53.786;9.996;2024-03-29T01:59:12;14.82;;;14.07;;
12880;SDS011;6508;53.786;9.996;2024-03-29T02:01:41;14.35;;;13.75;;
12880;SDS011;6508;53.786;9.996;2024-03-29T02:04:09;14.32;;;13.63;;
12880;SDS011;6508;53.786;9.996;2024-03-29T02:06:36;14.15;;;13.55;;
12880;SDS011;6508;53.786;9.996;2024-03-29T02:09:04;14.45;;;13.63;;
12880;SDS011;6508;53.786;9.996;2024-03-29T02:11:31;14.35;;;13.65;;
12880;SDS011;6508;53.786;9.996;2024-03-29T02:13:58;14.00;;;13.30;;
12880;SDS011;6508;53.786;9.996;2024-03-29T02:16:24;13.48;;;12.98;;
12880;SDS011;6508;53.786;9.996;2024-03-29T02:18:52;14.13;;;13.52;;
12880;SDS011;6508;53.786;9.996;2024-03-29T02:21:20;13.18;;;12.73;;
12880;SDS011;6508;53.786;9.996;2024-03-29T02:23:47;14.25;;;13.65;;
12880;SDS011;6508;53.786;9.996;2024-03-29T02:26:22;14.45;;;13.75;;
12880;SDS011;6508;53.786;9.996;2024-03-29T02:28:50;13.90;;;13.40;;
12880;SDS011;6508;53.786;9.996;2024-03-29T02:31:17;14.18;;;13.55;;
12880;SDS011;6508;53.786;9.996;2024-03-29T02:33:44;13.88;;;13.38;;
12880;SDS011;6508;53.786;9.996;2024-03-29T02:36:10;13.65;;;13.10;;
12880;SDS011;6508;53.786;9.996;2024-03-29T02:38:39;13.82;;;13.07;;
12880;SDS011;6508;53.786;9.996;2024-03-29T02:41:07;13.15;;;12.65;;
12880;SDS011;6508;53.786;9.996;2024-03-29T02:43:34;13.48;;;12.93;;
12880;SDS011;6508;53.786;9.996;2024-03-29T02:46:01;13.90;;;13.10;;
12880;SDS011;6508;53.786;9.996;2024-03-29T02:48:27;13.32;;;12.82;;
12880;SDS011;6508;53.786;9.996;2024-03-29T02:50:54;13.55;;;13.05;;
12880;SDS011;6508;53.786;9.996;2024-03-29T02:53:20;13.45;;;12.75;;
12880;SDS011;6508;53.786;9.996;2024-03-29T02:55:47;13.20;;;12.68;;
12880;SDS011;6508;53.786;9.996;2024-03-29T02:58:14;13.75;;;13.05;;
12880;SDS011;6508;53.786;9.996;2024-03-29T03:00:41;13.77;;;13.27;;
12880;SDS011;6508;53.786;9.996;2024-03-29T03:03:07;13.10;;;12.60;;
12880;SDS011;6508;53.786;9.996;2024-03-29T03:05:34;13.20;;;12.68;;
12880;SDS011;6508;53.786;9.996;2024-03-29T03:08:00;13.27;;;12.68;;
12880;SDS011;6508;53.786;9.996;2024-03-29T03:10:44;13.82;;;13.25;;
12880;SDS011;6508;53.786;9.996;2024-03-29T03:13:27;13.00;;;12.52;;
12880;SDS011;6508;53.786;9.996;2024-03-29T03:15:55;14.00;;;13.30;;
12880;SDS011;6508;53.786;9.996;2024-03-29T03:18:23;13.68;;;13.15;;
12880;SDS011;6508;53.786;9.996;2024-03-29T03:20:52;13.82;;;13.23;;
12880;SDS011;6508;53.786;9.996;2024-03-29T03:23:21;13.68;;;12.98;;
12880;SDS011;6508;53.786;9.996;2024-03-29T03:25:53;13.15;;;12.52;;
12880;SDS011;6508;53.786;9.996;2024-03-29T03:28:19;14.30;;;13.65;;
12880;SDS011;6508;53.786;9.996;2024-03-29T03:30:47;13.30;;;12.68;;
12880;SDS011;6508;53.786;9.996;2024-03-29T03:33:13;13.00;;;12.50;;
12880;SDS011;6508;53.786;9.996;2024-03-29T03:35:40;13.10;;;12.55;;
12880;SDS011;6508;53.786;9.996;2024-03-29T03:38:06;13.82;;;13.38;;
12880;SDS011;6508;53.786;9.996;2024-03-29T03:40:34;13.90;;;13.30;;
12880;SDS011;6508;53.786;9.996;2024-03-29T03:43:00;12.98;;;12.55;;
12880;SDS011;6508;53.786;9.996;2024-03-29T03:45:27;14.13;;;13.38;;
12880;SDS011;6508;53.786;9.996;2024-03-29T03:47:54;15.20;;;13.15;;
12880;SDS011;6508;53.786;9.996;2024-03-29T03:50:22;14.15;;;13.45;;
12880;SDS011;6508;53.786;9.996;2024-03-29T03:52:48;13.60;;;13.00;;
12880;SDS011;6508;53.786;9.996;2024-03-29T03:55:15;13.43;;;12.95;;
12880;SDS011;6508;53.786;9.996;2024-03-29T03:57:41;14.20;;;13.52;;
12880;SDS011;6508;53.786;9.996;2024-03-29T04:00:09;14.20;;;13.70;;
12880;SDS011;6508;53.786;9.996;2024-03-29T04:02:38;14.82;;;14.05;;
12880;SDS011;6508;53.786;9.996;2024-03-29T04:05:07;14.88;;;14.07;;
12880;SDS011;6508;53.786;9.996;2024-03-29T04:07:33;14.15;;;13.55;;
12880;SDS011;6508;53.786;9.996;2024-03-29T04:10:00;14.60;;;13.85;;
12880;SDS011;6508;53.786;9.996;2024-03-29T04:12:26;14.25;;;13.65;;
12880;SDS011;6508;53.786;9.996;2024-03-29T04:14:53;13.85;;;13.35;;
12880;SDS011;6508;53.786;9.996;2024-03-29T04:17:19;13.80;;;13.30;;
12880;SDS011;6508;53.786;9.996;2024-03-29T04:19:45;13.55;;;13.05;;
12880;SDS011;6508;53.786;9.996;2024-03-29T04:22:13;13.93;;;13.18;;
12880;SDS011;6508;53.786;9.996;2024-03-29T04:24:39;14.02;;;13.32;;
12880;SDS011;6508;53.786;9.996;2024-03-29T04:27:05;13.95;;;13.45;;
12880;SDS011;6508;53.786;9.996;2024-03-29T04:29:32;13.80;;;13.13;;
12880;SDS011;6508;53.786;9.996;2024-03-29T04:31:58;14.07;;;13.57;;
12880;SDS011;6508;53.786;9.996;2024-03-29T04:34:25;13.95;;;13.35;;
12880;SDS011;6508;53.786;9.996;2024-03-29T04:36:51;13.73;;;13.05;;
12880;SDS011;6508;53.786;9.996;2024-03-29T04:39:19;13.90;;;13.07;;
12880;SDS011;6508;53.786;9.996;2024-03-29T04:41:46;14.50;;;13.65;;
12880;SDS011;6508;53.786;9.996;2024-03-29T04:44:13;13.60;;;13.10;;
12880;SDS011;6508;53.786;9.996;2024-03-29T04:46:40;13.93;;;13.18;;
12880;SDS011;6508;53.786;9.996;2024-03-29T04:49:07;14.25;;;13.68;;
12880;SDS011;6508;53.786;9.996;2024-03-29T04:51:33;13.70;;;13.20;;
12880;SDS011;6508;53.786;9.996;2024-03-29T04:54:00;13.93;;;13.32;;
12880;SDS011;6508;53.786;9.996;2024-03-29T04:56:28;14.35;;;13.65;;
12880;SDS011;6508;53.786;9.996;2024-03-29T04:58:55;13.65;;;13.10;;
12880;SDS011;6508;53.786;9.996;2024-03-29T05:01:22;13.93;;;13.32;;
12880;SDS011;6508;53.786;9.996;2024-03-29T05:03:50;13.60;;;13.10;;
12880;SDS011;6508;53.786;9.996;2024-03-29T05:06:17;13.30;;;12.73;;
12880;SDS011;6508;53.786;9.996;2024-03-29T05:08:43;14.25;;;13.65;;
12880;SDS011;6508;53.786;9.996;2024-03-29T05:11:10;12.73;;;12.10;;
12880;SDS011;6508;53.786;9.996;2024-03-29T05:13:41;13.10;;;12.60;;
12880;SDS011;6508;53.786;9.996;2024-03-29T05:16:07;12.88;;;12.27;;
12880;SDS011;6508;53.786;9.996;2024-03-29T05:18:34;12.77;;;12.13;;
12880;SDS011;6508;53.786;9.996;2024-03-29T05:21:01;12.55;;;12.05;;
12880;SDS011;6508;53.786;9.996;2024-03-29T05:23:28;12.77;;;12.15;;
12880;SDS011;6508;53.786;9.996;2024-03-29T05:25:55;13.25;;;12.15;;
12880;SDS011;6508;53.786;9.996;2024-03-29T05:28:22;12.02;;;11.52;;
12880;SDS011;6508;53.786;9.996;2024-03-29T05:30:50;13.30;;;12.70;;
12880;SDS011;6508;53.786;9.996;2024-03-29T05:33:17;12.77;;;12.27;;
12880;SDS011;6508;53.786;9.996;2024-03-29T05:35:44;12.65;;;12.15;;
12880;SDS011;6508;53.786;9.996;2024-03-29T05:38:11;12.60;;;12.02;;
12880;SDS011;6508;53.786;9.996;2024-03-29T05:40:38;12.07;;;11.38;;
12880;SDS011;6508;53.786;9.996;2024-03-29T05:43:05;12.20;;;11.70;;
12880;SDS011;6508;53.786;9.996;2024-03-29T05:45:32;12.70;;;12.10;;
12880;SDS011;6508;53.786;9.996;2024-03-29T05:48:00;12.48;;;11.80;;
12880;SDS011;6508;53.786;9.996;2024-03-29T05:50:27;12.48;;;11.73;;
12880;SDS011;6508;53.786;9.996;2024-03-29T05:52:54;11.15;;;10.75;;
12880;SDS011;6508;53.786;9.996;2024-03-29T05:55:22;11.63;;;11.15;;
12880;SDS011;6508;53.786;9.996;2024-03-29T05:57:49;11.73;;;11.20;;
12880;SDS011;6508;53.786;9.996;2024-03-29T06:00:16;11.20;;;10.80;;
12880;SDS011;6508;53.786;9.996;2024-03-29T06:02:43;11.25;;;10.82;;
12880;SDS011;6508;53.786;9.996;2024-03-29T06:05:13;10.73;;;10.43;;
12880;SDS011;6508;53.786;9.996;2024-03-29T06:07:40;11.55;;;10.85;;
12880;SDS011;6508;53.786;9.996;2024-03-29T06:10:07;11.35;;;10.55;;
12880;SDS011;6508;53.786;9.996;2024-03-29T06:12:35;10.82;;;10.43;;
12880;SDS011;6508;53.786;9.996;2024-03-29T06:15:04;11.07;;;10.48;;
12880;SDS011;6508;53.786;9.996;2024-03-29T06:17:50;10.85;;;10.45;;
12880;SDS011;6508;53.786;9.996;2024-03-29T06:20:18;10.50;;;10.10;;
12880;SDS011;6508;53.786;9.996;2024-03-29T06:22:46;10.52;;;9.98;;
12880;SDS011;6508;53.786;9.996;2024-03-29T06:25:13;10.70;;;10.20;;
12880;SDS011;6508;53.786;9.996;2024-03-29T06:27:41;10.07;;;9.57;;
12880;SDS011;6508;53.786;9.996;2024-03-29T06:30:13;10.30;;;9.75;;
12880;SDS011;6508;53.786;9.996;2024-03-29T06:32:40;10.30;;;9.90;;
12880;SDS011;6508;53.786;9.996;2024-03-29T06:35:08;10.85;;;10.27;;
12880;SDS011;6508;53.786;9.996;2024-03-29T06:37:37;10.52;;;10.02;;
12880;SDS011;6508;53.786;9.996;2024-03-29T06:40:04;10.43;;;10.02;;
12880;SDS011;6508;53.786;9.996;2024-03-29T06:42:33;10.00;;;9.70;;
12880;SDS011;6508;53.786;9.996;2024-03-29T06:45:00;10.50;;;9.93;;
12880;SDS011;6508;53.786;9.996;2024-03-29T06:47:28;10.07;;;9.77;;
12880;SDS011;6508;53.786;9.996;2024-03-29T06:49:55;10.05;;;9.65;;
12880;SDS011;6508;53.786;9.996;2024-03-29T06:52:22;9.93;;;9.50;;
12880;SDS011;6508;53.786;9.996;2024-03-29T06:54:50;10.10;;;9.63;;
12880;SDS011;6508;53.786;9.996;2024-03-29T06:57:17;10.38;;;9.85;;
12880;SDS011;6508;53.786;9.996;2024-03-29T06:59:49;10.65;;;10.25;;
12880;SDS011;6508;53.786;9.996;2024-03-29T07:02:16;9.88;;;9.57;;
12880;SDS011;6508;53.786;9.996;2024-03-29T07:04:43;10.60;;;10.00;;
12880;SDS011;6508;53.786;9.996;2024-03-29T07:07:10;10.00;;;9.50;;
12880;SDS011;6508;53.786;9.996;2024-03-29T07:09:37;9.73;;;9.27;;
12880;SDS011;6508;53.786;9.996;2024-03-29T07:12:06;9.95;;;9.65;;
12880;SDS011;6508;53.786;9.996;2024-03-29T07:14:33;9.93;;;9.52;;
12880;SDS011;6508;53.786;9.996;2024-03-29T07:17:01;10.35;;;9.95;;
12880;SDS011;6508;53.786;9.996;2024-03-29T07:19:28;9.77;;;9.38;;
12880;SDS011;6508;53.786;9.996;2024-03-29T07:21:55;10.05;;;9.50;;
12880;SDS011;6508;53.786;9.996;2024-03-29T07:24:22;9.85;;;9.45;;
12880;SDS011;6508;53.786;9.996;2024-03-29T07:26:49;9.88;;;9.52;;
12880;SDS011;6508;53.786;9.996;2024-03-29T07:29:17;9.85;;;9.50;;
12880;SDS011;6508;53.786;9.996;2024-03-29T07:31:44;10.00;;;9.50;;
12880;SDS011;6508;53.786;9.996;2024-03-29T07:34:11;9.30;;;8.88;;
12880;SDS011;6508;53.786;9.996;2024-03-29T07:36:37;9.63;;;9.18;;
12880;SDS011;6508;53.786;9.996;2024-03-29T07:39:06;9.77;;;9.25;;
12880;SDS011;6508;53.786;9.996;2024-03-29T07:41:33;9.25;;;8.88;;
12880;SDS011;6508;53.786;9.996;2024-03-29T07:44:00;9.48;;;9.10;;
12880;SDS011;6508;53.786;9.996;2024-03-29T07:46:31;8.98;;;8.48;;
12880;SDS011;6508;53.786;9.996;2024-03-29T07:49:00;9.15;;;8.75;;
12880;SDS011;6508;53.786;9.996;2024-03-29T07:51:27;8.80;;;8.50;;
12880;SDS011;6508;53.786;9.996;2024-03-29T07:53:54;9.13;;;8.65;;
12880;SDS011;6508;53.786;9.996;2024-03-29T07:56:21;8.85;;;8.55;;
12880;SDS011;6508;53.786;9.996;2024-03-29T07:58:51;8.90;;;8.55;;
12880;SDS011;6508;53.786;9.996;2024-03-29T08:01:19;9.00;;;8.70;;
12880;SDS011;6508;53.786;9.996;2024-03-29T08:03:51;8.93;;;8.52;;
12880;SDS011;6508;53.786;9.996;2024-03-29T08:06:18;9.05;;;8.50;;
12880;SDS011;6508;53.786;9.996;2024-03-29T08:08:46;8.85;;;8.38;;
12880;SDS011;6508;53.786;9.996;2024-03-29T08:11:12;8.77;;;8.27;;
12880;SDS011;6508;53.786;9.996;2024-03-29T08:13:40;8.90;;;8.50;;
12880;SDS011;6508;53.786;9.996;2024-03-29T08:16:08;8.95;;;8.40;;
12880;SDS011;6508;53.786;9.996;2024-03-29T08:18:36;8.48;;;8.07;;
12880;SDS011;6508;53.786;9.996;2024-03-29T08:21:04;7.60;;;7.38;;
12880;SDS011;6508;53.786;9.996;2024-03-29T08:23:37;8.32;;;7.93;;
12880;SDS011;6508;53.786;9.996;2024-03-29T08:26:05;7.43;;;7.10;;
12880;SDS011;6508;53.786;9.996;2024-03-29T08:28:33;10.70;;;8.90;;
12880;SDS011;6508;53.786;9.996;2024-03-29T08:31:03;8.70;;;8.40;;
12880;SDS011;6508;53.786;9.996;2024-03-29T08:33:32;7.88;;;7.68;;
12880;SDS011;6508;53.786;9.996;2024-03-29T08:35:59;8.25;;;7.75;;
12880;SDS011;6508;53.786;9.996;2024-03-29T08:38:28;7.68;;;7.45;;
12880;SDS011;6508;53.786;9.996;2024-03-29T08:40:55;8.23;;;7.82;;
12880;SDS011;6508;53.786;9.996;2024-03-29T08:43:22;8.38;;;8.10;;
12880;SDS011;6508;53.786;9.996;2024-03-29T08:45:49;8.30;;;7.97;;
12880;SDS011;6508;53.786;9.996;2024-03-29T08:48:16;8.27;;;7.90;;
12880;SDS011;6508;53.786;9.996;2024-03-29T08:50:43;8.52;;;8.23;;
12880;SDS011;6508;53.786;9.996;2024-03-29T08:53:11;7.68;;;7.47;;
12880;SDS011;6508;53.786;9.996;2024-03-29T08:55:39;8.27;;;7.97;;
12880;SDS011;6508;53.786;9.996;2024-03-29T08:58:06;8.77;;;8.48;;
12880;SDS011;6508;53.786;9.996;2024-03-29T09:00:33;8.32;;;8.13;;
12880;SDS011;6508;53.786;9.996;2024-03-29T09:03:00;8.52;;;8.05;;
12880;SDS011;6508;53.786;9.996;2024-03-29T09:05:27;8.00;;;7.80;;
12880;SDS011;6508;53.786;9.996;2024-03-29T09:07:55;7.85;;;7.55;;
12880;SDS011;6508;53.786;9.996;2024-03-29T09:10:22;8.43;;;8.07;;
12880;SDS011;6508;53.786;9.996;2024-03-29T09:12:51;7.97;;;7.68;;
12880;SDS011;6508;53.786;9.996;2024-03-29T09:15:18;8.20;;;7.90;;
12880;SDS011;6508;53.786;9.996;2024-03-29T09:17:45;8.75;;;8.25;;
12880;SDS011;6508;53.786;9.996;2024-03-29T09:20:12;8.70;;;8.50;;
12880;SDS011;6508;53.786;9.996;2024-03-29T09:22:39;9.55;;;9.00;;
12880;SDS011;6508;53.786;9.996;2024-03-29T09:25:07;8.85;;;8.55;;
12880;SDS011;6508;53.786;9.996;2024-03-29T09:27:38;8.20;;;7.80;;
12880;SDS011;6508;53.786;9.996;2024-03-29T09:30:11;8.15;;;7.75;;
12880;SDS011;6508;53.786;9.996;2024-03-29T09:32:39;7.72;;;7.53;;
12880;SDS011;6508;53.786;9.996;2024-03-29T09:35:06;7.53;;;7.32;;
12880;SDS011;6508;53.786;9.996;2024-03-29T09:37:33;7.57;;;7.28;;
12880;SDS011;6508;53.786;9.996;2024-03-29T09:40:02;8.23;;;7.93;;
12880;SDS011;6508;53.786;9.996;2024-03-29T09:42:31;8.10;;;7.80;;
12880;SDS011;6508;53.786;9.996;2024-03-29T09:44:59;8.35;;;7.95;;
12880;SDS011;6508;53.786;9.996;2024-03-29T09:47:31;8.20;;;7.90;;
12880;SDS011;6508;53.786;9.996;2024-03-29T09:49:58;8.75;;;8.45;;
12880;SDS011;6508;53.786;9.996;2024-03-29T09:52:29;8.55;;;8.25;;
12880;SDS011;6508;53.786;9.996;2024-03-29T09:54:57;8.65;;;8.35;;
12880;SDS011;6508;53.786;9.996;2024-03-29T09:57:27;9.60;;;9.30;;
12880;SDS011;6508;53.786;9.996;2024-03-29T09:59:55;8.90;;;8.57;;
12880;SDS011;6508;53.786;9.996;2024-03-29T10:02:23;8.98;;;8.57;;
12880;SDS011;6508;53.786;9.996;2024-03-29T10:04:55;8.88;;;8.57;;
12880;SDS011;6508;53.786;9.996;2024-03-29T10:07:24;9.52;;;9.07;;
12880;SDS011;6508;53.786;9.996;2024-03-29T10:09:51;9.48;;;9.18;;
12880;SDS011;6508;53.786;9.996;2024-03-29T10:12:20;9.48;;;9.15;;
12880;SDS011;6508;53.786;9.996;2024-03-29T10:14:47;9.00;;;8.70;;
12880;SDS011;6508;53.786;9.996;2024-03-29T10:17:17;10.70;;;10.15;;
12880;SDS011;6508;53.786;9.996;2024-03-29T10:19:45;10.23;;;9.93;;
12880;SDS011;6508;53.786;9.996;2024-03-29T10:22:14;10.48;;;10.10;;
12880;SDS011;6508;53.786;9.996;2024-03-29T10:24:42;9.27;;;8.98;;
12880;SDS011;6508;53.786;9.996;2024-03-29T10:27:08;9.93;;;9.63;;
12880;SDS011;6508;53.786;9.996;2024-03-29T10:29:35;9.93;;;9.48;;
12880;SDS011;6508;53.786;9.996;2024-03-29T10:32:02;10.10;;;9.70;;
12880;SDS011;6508;53.786;9.996;2024-03-29T10:34:30;9.30;;;9.07;;
12880;SDS011;6508;53.786;9.996;2024-03-29T10:37:00;9.60;;;9.30;;
12880;SDS011;6508;53.786;9.996;2024-03-29T10:39:30;10.27;;;9.77;;
12880;SDS011;6508;53.786;9.996;2024-03-29T10:42:00;10.00;;;9.60;;
12880;SDS011;6508;53.786;9.996;2024-03-29T10:44:28;9.23;;;8.82;;
12880;SDS011;6508;53.786;9.996;2024-03-29T10:46:57;9.63;;;9.27;;
12880;SDS011;6508;53.786;9.996;2024-03-29T10:49:24;9.98;;;9.60;;
12880;SDS011;6508;53.786;9.996;2024-03-29T10:51:52;9.75;;;9.35;;
12880;SDS011;6508;53.786;9.996;2024-03-29T10:54:22;9.77;;;9.48;;
12880;SDS011;6508;53.786;9.996;2024-03-29T10:56:52;9.55;;;9.25;;
12880;SDS011;6508;53.786;9.996;2024-03-29T10:59:26;9.40;;;8.98;;
12880;SDS011;6508;53.786;9.996;2024-03-29T11:02:18;9.00;;;8.77;;
12880;SDS011;6508;53.786;9.996;2024-03-29T11:04:56;8.52;;;8.13;;
12880;SDS011;6508;53.786;9.996;2024-03-29T11:07:31;9.02;;;8.63;;
12880;SDS011;6508;53.786;9.996;2024-03-29T11:10:03;9.93;;;9.52;;
12880;SDS011;6508;53.786;9.996;2024-03-29T11:12:39;9.85;;;9.40;;
12880;SDS011;6508;53.786;9.996;2024-03-29T11:15:27;9.63;;;9.32;;
12880;SDS011;6508;53.786;9.996;2024-03-29T11:17:55;10.10;;;9.75;;
12880;SDS011;6508;53.786;9.996;2024-03-29T11:20:23;10.70;;;10.20;;
12880;SDS011;6508;53.786;9.996;2024-03-29T11:22:59;10.43;;;10.02;;
12880;SDS011;6508;53.786;9.996;2024-03-29T11:25:41;10.00;;;9.70;;
12880;SDS011;6508;53.786;9.996;2024-03-29T11:28:10;9.90;;;9.60;;
12880;SDS011;6508;53.786;9.996;2024-03-29T11:30:40;10.32;;;9.85;;
12880;SDS011;6508;53.786;9.996;2024-03-29T11:35:56;10.38;;;9.98;;
12880;SDS011;6508;53.786;9.996;2024-03-29T11:38:31;10.35;;;9.95;;
12880;SDS011;6508;53.786;9.996;2024-03-29T11:41:03;10.30;;;9.82;;
12880;SDS011;6508;53.786;9.996;2024-03-29T11:43:33;11.02;;;10.57;;
12880;SDS011;6508;53.786;9.996;2024-03-29T11:46:02;10.63;;;10.23;;
12880;SDS011;6508;53.786;9.996;2024-03-29T11:48:34;10.57;;;10.18;;
12880;SDS011;6508;53.786;9.996;2024-03-29T11:51:02;10.85;;;10.45;;
12880;SDS011;6508;53.786;9.996;2024-03-29T11:53:30;10.48;;;9.98;;
12880;SDS011;6508;53.786;9.996;2024-03-29T11:55:58;11.35;;;10.85;;
12880;SDS011;6508;53.786;9.996;2024-03-29T11:58:26;10.30;;;9.88;;
12880;SDS011;6508;53.786;9.996;2024-03-29T12:00:56;9.82;;;9.45;;
12880;SDS011;6508;53.786;9.996;2024-03-29T12:03:24;9.90;;;9.60;;
12880;SDS011;6508;53.786;9.996;2024-03-29T12:05:52;9.52;;;9.23;;
12880;SDS011;6508;53.786;9.996;2024-03-29T12:08:21;9.45;;;9.15;;
12880;SDS011;6508;53.786;9.996;2024-03-29T12:10:48;9.90;;;9.50;;
12880;SDS011;6508;53.786;9.996;2024-03-29T12:13:15;11.25;;;10.85;;
12880;SDS011;6508;53.786;9.996;2024-03-29T12:15:44;10.93;;;10.43;;
12880;SDS011;6508;53.786;9.996;2024-03-29T12:18:12;9.90;;;9.50;;
12880;SDS011;6508;53.786;9.996;2024-03-29T12:20:42;10.07;;;9.60;;
12880;SDS011;6508;53.786;9.996;2024-03-29T12:23:11;8.82;;;8.35;;
12880;SDS011;6508;53.786;9.996;2024-03-29T12:25:39;9.02;;;8.52;;
12880;SDS011;6508;53.786;9.996;2024-03-29T12:28:07;8.40;;;8.10;;
12880;SDS011;6508;53.786;9.996;2024-03-29T12:30:33;8.95;;;8.55;;
12880;SDS011;6508;53.786;9.996;2024-03-29T12:33:01;8.65;;;8.35;;
12880;SDS011;6508;53.786;9.996;2024-03-29T12:35:30;8.48;;;8.07;;
12880;SDS011;6508;53.786;9.996;2024-03-29T12:37:58;8.35;;;7.95;;
12880;SDS011;6508;53.786;9.996;2024-03-29T12:40:25;7.82;;;7.43;;
12880;SDS011;6508;53.786;9.996;2024-03-29T12:42:55;7.65;;;7.25;;
12880;SDS011;6508;53.786;9.996;2024-03-29T12:45:23;7.07;;;6.78;;
12880;SDS011;6508;53.786;9.996;2024-03-29T12:47:50;7.32;;;7.03;;
12880;SDS011;6508;53.786;9.996;2024-03-29T12:50:19;7.28;;;6.97;;
12880;SDS011;6508;53.786;9.996;2024-03-29T12:52:53;6.70;;;6.50;;
12880;SDS011;6508;53.786;9.996;2024-03-29T12:55:20;7.20;;;6.90;;
12880;SDS011;6508;53.786;9.996;2024-03-29T12:57:47;8.00;;;7.70;;
12880;SDS011;6508;53.786;9.996;2024-03-29T13:00:15;8.45;;;8.15;;
12880;SDS011;6508;53.786;9.996;2024-03-29T13:02:43;8.65;;;8.35;;
12880;SDS011;6508;53.786;9.996;2024-03-29T13:05:10;8.00;;;7.80;;
12880;SDS011;6508;53.786;9.996;2024-03-29T13:07:37;7.13;;;6.82;;
12880;SDS011;6508;53.786;9.996;2024-03-29T13:10:06;7.32;;;7.03;;
12880;SDS011;6508;53.786;9.996;2024-03-29T13:12:39;7.13;;;6.93;;
12880;SDS011;6508;53.786;9.996;2024-03-29T13:15:14;8.18;;;7.97;;
12880;SDS011;6508;53.786;9.996;2024-03-29T13:17:44;8.38;;;7.97;;
12880;SDS011;6508;53.786;9.996;2024-03-29T13:20:12;8.30;;;8.00;;
12880;SDS011;6508;53.786;9.996;2024-03-29T13:22:40;8.05;;;7.65;;
12880;SDS011;6508;53.786;9.996;2024-03-29T13:25:11;8.57;;;8.05;;
12880;SDS011;6508;53.786;9.996;2024-03-29T13:27:38;7.70;;;7.38;;
12880;SDS011;6508;53.786;9.996;2024-03-29T13:30:07;7.80;;;7.50;;
12880;SDS011;6508;53.786;9.996;2024-03-29T13:32:35;8.27;;;7.97;;
12880;SDS011;6508;53.786;9.996;2024-03-29T13:35:02;8.57;;;8.10;;
12880;SDS011;6508;53.786;9.996;2024-03-29T13:37:30;8.27;;;7.97;;
12880;SDS011;6508;53.786;9.996;2024-03-29T13:39:58;8.80;;;8.50;;
12880;SDS011;6508;53.786;9.996;2024-03-29T13:42:26;8.43;;;8.13;;
12880;SDS011;6508;53.786;9.996;2024-03-29T13:44:53;8.80;;;8.40;;
12880;SDS011;6508;53.786;9.996;2024-03-29T13:47:20;8.82;;;8.52;;
12880;SDS011;6508;53.786;9.996;2024-03-29T13:49:47;9.20;;;8.90;;
12880;SDS011;6508;53.786;9.996;2024-03-29T13:52:18;9.02;;;8.73;;
12880;SDS011;6508;53.786;9.996;2024-03-29T13:54:46;9.63;;;8.90;;
12880;SDS011;6508;53.786;9.996;2024-03-29T13:57:13;9.20;;;8.85;;
12880;SDS011;6508;53.786;9.996;2024-03-29T13:59:43;8.23;;;8.02;;
12880;SDS011;6508;53.786;9.996;2024-03-29T14:02:10;8.88;;;8.57;;
12880;SDS011;6508;53.786;9.996;2024-03-29T14:04:38;8.00;;;7.70;;
12880;SDS011;6508;53.786;9.996;2024-03-29T14:07:05;8.30;;;7.97;;
12880;SDS011;6508;53.786;9.996;2024-03-29T14:09:34;9.07;;;8.70;;
12880;SDS011;6508;53.786;9.996;2024-03-29T14:12:01;8.27;;;7.97;;
12880;SDS011;6508;53.786;9.996;2024-03-29T14:14:28;8.65;;;8.25;;
12880;SDS011;6508;53.786;9.996;2024-03-29T14:16:57;8.50;;;8.20;;
12880;SDS011;6508;53.786;9.996;2024-03-29T14:19:28;9.30;;;9.00;;
12880;SDS011;6508;53.786;9.996;2024-03-29T14:21:55;9.00;;;8.60;;
12880;SDS011;6508;53.786;9.996;2024-03-29T14:24:22;8.93;;;8.63;;
12880;SDS011;6508;53.786;9.996;2024-03-29T14:26:50;9.85;;;9.40;;
12880;SDS011;6508;53.786;9.996;2024-03-29T14:29:17;9.18;;;8.88;;
12880;SDS011;6508;53.786;9.996;2024-03-29T14:31:47;9.68;;;9.30;;
12880;SDS011;6508;53.786;9.996;2024-03-29T14:34:15;9.60;;;9.10;;
12880;SDS011;6508;53.786;9.996;2024-03-29T14:36:42;9.77;;;9.48;;
12880;SDS011;6508;53.786;9.996;2024-03-29T14:39:09;9.40;;;8.88;;
12880;SDS011;6508;53.786;9.996;2024-03-29T14:41:38;8.95;;;8.68;;
12880;SDS011;6508;53.786;9.996;2024-03-29T14:44:05;9.43;;;9.13;;
12880;SDS011;6508;53.786;9.996;2024-03-29T14:46:32;9.73;;;9.43;;
12880;SDS011;6508;53.786;9.996;2024-03-29T14:49:00;9.57;;;9.27;;
12880;SDS011;6508;53.786;9.996;2024-03-29T14:51:32;9.45;;;9.15;;
12880;SDS011;6508;53.786;9.996;2024-03-29T14:53:58;9.05;;;8.75;;
12880;SDS011;6508;53.786;9.996;2024-03-29T14:56:28;9.63;;;9.27;;